メインページ
METAR-TAF:

METAR-TAF

空港 :

ヘルシンキ・ヴァンター国際空港

ヘルシンキ, フィンランド

緯度: 60-19N, 経度: 024-58E, 海抜: 51m

現時点の気象観測

当レポートは16分前の07:20(UTC)に作成
南/南西の風 12kt
気温 18°C
湿度 88%
気圧 1008 hPa
視程10km以上
高度1100ftの千切れ雲あり

METAR: EFHK 190720Z 21012KT 9999 BKN011 18/16 Q1008 TEMPO SCT011 FEW030CB BKN040

時間: 10:36 (07:36 UTC)

予報

当レポートは2時間0分前の05:36(UTC)に作成
予報は19日の 06時(UTC)から 20日の 06時(UTC)まで有効
南/南西の風 10kt
視程10km以上
高度800ftの雲は散在している
高度4000ftの千切れ雲あり
小雨
19日の 06時(UTC)から 19日の 10時(UTC)まで一時的に
視程: 7000m
高度800ftの千切れ雲あり
高度3000ftの雲は散在している, 積乱雲.
にわか雨
19日の 11時(UTC)から 19日の 13時(UTC)まで徐々に
西の風 10kt、最大20ktの突風を伴う
19日の 23時(UTC)から 20日の 01時(UTC)まで徐々に
の風 4kt

TAF: EFHK 190536Z 1906/2006 20010KT 9999 -RA SCT008 BKN040 TEMPO 1906/1910 7000 SHRA BKN008 SCT030CB BECMG 1911/1913 26010G20KT BECMG 1923/2001 18004KT

4,000以上の空港の気象観測と天気予報(METAR報とTAF報)

利用可能な観測所は地図上に黄色い丸と赤い丸で示す。

丸の上にカーソルを重ねると観測所名を参照できる。

次にクリックすると気象観測と天気予報を参照できる。

マップの切り替え:黒色「×」印の緑ボタンをクリックして拡大、「-」印の緑ボタンをクリックして縮小、緑色の三角印をクリックして隣りの地図に切り替え


METAR-TAF: